createdAt,value
2023-02-08T00:01:27.996Z,102603.25
2023-02-08T00:06:30.933Z,102607.69
2023-02-08T00:11:33.778Z,102599.59
2023-02-08T00:16:37.974Z,102606.88
2023-02-08T00:21:40.752Z,102614.06
2023-02-08T00:26:43.519Z,102623.97
2023-02-08T00:31:47.777Z,102624.00
2023-02-08T00:36:51.438Z,102619.53
2023-02-08T00:41:54.266Z,102618.66
2023-02-08T00:46:58.599Z,102616.84
2023-02-08T00:52:01.422Z,102611.47
2023-02-08T00:57:04.708Z,102610.59
2023-02-08T01:02:09.103Z,102608.88
2023-02-08T01:07:12.083Z,102615.19
2023-02-08T01:12:14.848Z,102605.34
2023-02-08T01:17:18.901Z,102624.16
2023-02-08T01:22:21.631Z,102616.09
2023-02-08T01:27:24.346Z,102614.25
2023-02-08T01:32:29.437Z,102611.66
2023-02-08T01:37:32.520Z,102614.41
2023-02-08T01:42:35.316Z,102609.84
2023-02-08T01:47:39.700Z,102602.63
2023-02-08T01:52:44.312Z,102601.88
2023-02-08T01:57:47.597Z,102588.44
2023-02-08T02:02:55.578Z,102585.72
2023-02-08T02:08:00.274Z,102578.56
2023-02-08T02:13:06.045Z,102581.28
2023-02-08T02:18:10.930Z,102576.75
2023-02-08T02:23:36.380Z,102568.81
2023-02-08T02:29:15.679Z,102576.84
2023-02-08T02:34:27.159Z,102564.38
2023-02-08T02:39:36.781Z,102576.00
2023-02-08T02:44:49.792Z,102572.38
2023-02-08T02:49:57.958Z,102576.03
2023-02-08T02:55:06.208Z,102575.16
2023-02-08T03:00:11.192Z,102580.53
2023-02-08T03:05:15.346Z,102577.03
2023-02-08T03:10:41.584Z,102579.72
2023-02-08T03:15:56.503Z,102590.34
2023-02-08T03:21:08.147Z,102586.81
2023-02-08T03:26:20.271Z,102600.31
2023-02-08T03:31:31.716Z,102584.19
2023-02-08T03:36:42.877Z,102598.56
2023-02-08T03:41:49.701Z,102598.56
2023-02-08T03:46:57.898Z,102600.38
2023-02-08T03:52:06.326Z,102595.09
2023-02-08T03:57:16.682Z,102589.69
2023-02-08T04:02:22.732Z,102590.63
2023-02-08T04:07:26.882Z,102589.69
2023-02-08T04:12:29.637Z,102596.91
2023-02-08T04:17:32.805Z,102585.25
2023-02-08T04:22:36.900Z,102586.13
2023-02-08T04:27:39.693Z,102572.81
2023-02-08T04:32:42.471Z,102573.53
2023-02-08T04:37:46.550Z,102566.34
2023-02-08T04:42:49.334Z,102572.72
2023-02-08T04:47:52.327Z,102579.09
2023-02-08T04:52:56.452Z,102574.78
2023-02-08T04:57:59.432Z,102571.34
2023-02-08T05:03:02.171Z,102572.34
2023-02-08T05:08:06.622Z,102575.13
2023-02-08T05:13:09.672Z,102561.84
2023-02-08T05:18:12.469Z,102561.09
2023-02-08T05:23:16.769Z,102565.72
2023-02-08T05:28:19.988Z,102551.41
2023-02-08T05:33:22.808Z,102557.84
2023-02-08T05:38:27.076Z,102552.56
2023-02-08T05:43:29.957Z,102557.19
2023-02-08T05:48:33.299Z,102560.88
2023-02-08T05:53:37.802Z,102561.94
2023-02-08T05:58:40.542Z,102562.97
2023-02-08T06:03:43.614Z,102557.78
2023-02-08T06:08:48.013Z,102557.97
2023-02-08T06:13:50.880Z,102580.56
2023-02-08T06:18:53.644Z,102571.81
2023-02-08T06:23:57.732Z,102570.22
2023-02-08T06:29:00.606Z,102574.88
2023-02-08T06:34:03.387Z,102580.47
2023-02-08T06:39:07.674Z,102588.66
2023-02-08T06:44:10.423Z,102589.69
2023-02-08T06:49:13.216Z,102587.06
2023-02-08T06:54:17.447Z,102597.00
2023-02-08T06:59:20.238Z,102591.72
2023-02-08T07:04:23.106Z,102597.16
2023-02-08T07:09:27.327Z,102599.94
2023-02-08T07:14:30.161Z,102592.81
2023-02-08T07:19:33.016Z,102594.72
2023-02-08T07:24:38.605Z,102596.47
2023-02-08T07:29:41.525Z,102596.63
2023-02-08T07:34:45.562Z,102597.56
2023-02-08T07:39:49.667Z,102599.38
2023-02-08T07:44:52.492Z,102603.03
2023-02-08T07:49:55.176Z,102596.06
2023-02-08T07:54:59.334Z,102640.63
2023-02-08T08:00:02.133Z,102636.88
2023-02-08T08:05:14.862Z,102642.28
2023-02-08T08:10:19.125Z,102639.25
2023-02-08T08:15:22.017Z,102612.88
2023-02-08T08:20:25.180Z,102601.25
2023-02-08T08:25:29.568Z,102607.91
2023-02-08T08:30:32.361Z,102604.75
2023-02-08T08:35:35.168Z,102599.81
2023-02-08T08:40:39.626Z,102602.84
2023-02-08T08:45:42.596Z,102594.41
2023-02-08T08:50:45.404Z,102600.28
2023-02-08T08:55:49.509Z,102606.13
2023-02-08T09:00:52.447Z,102607.56
2023-02-08T09:05:55.202Z,102603.59
2023-02-08T09:11:05.405Z,102601.53
2023-02-08T09:16:10.410Z,102602.06
2023-02-08T09:21:15.304Z,102597.38
2023-02-08T09:26:21.001Z,102598.84
2023-02-08T09:31:25.780Z,102591.34
2023-02-08T09:36:33.143Z,102598.34
2023-02-08T09:42:04.605Z,102602.94
2023-02-08T09:47:15.693Z,102603.56
2023-02-08T09:52:24.791Z,102600.59
2023-02-08T09:57:33.030Z,102608.41
2023-02-08T10:02:36.268Z,102616.31
2023-02-08T10:07:42.006Z,102624.16
2023-02-08T10:12:54.133Z,102617.69
2023-02-08T10:18:24.522Z,102614.75
2023-02-08T10:23:45.137Z,102614.47
2023-02-08T10:29:12.551Z,102601.66
2023-02-08T10:34:27.271Z,102592.53
2023-02-08T10:39:35.665Z,102587.88
2023-02-08T10:44:58.826Z,102590.44
2023-02-08T10:50:06.012Z,102593.31
2023-02-08T10:55:15.122Z,102586.06
2023-02-08T11:00:22.502Z,102574.31
2023-02-08T11:05:34.894Z,102572.41
2023-02-08T11:10:39.266Z,102577.66
2023-02-08T11:15:47.915Z,102569.28
2023-02-08T11:20:53.540Z,102553.97
2023-02-08T11:26:15.289Z,102535.84
2023-02-08T11:31:21.749Z,102539.19
2023-02-08T11:36:24.797Z,102539.94
2023-02-08T11:41:27.796Z,102540.06
2023-02-08T11:46:34.873Z,102538.31
2023-02-08T11:51:38.846Z,102547.25
2023-02-08T11:56:41.665Z,102533.63
2023-02-08T12:01:46.439Z,102531.84
2023-02-08T12:07:14.085Z,102540.63
2023-02-08T12:12:26.896Z,102522.56
2023-02-08T12:18:00.403Z,102515.19
2023-02-08T12:23:25.316Z,102497.19
2023-02-08T12:28:42.927Z,102486.28
2023-02-08T12:33:57.401Z,102471.75
2023-02-08T12:39:46.879Z,102472.38
2023-02-08T12:45:17.618Z,102466.72
2023-02-08T12:50:28.385Z,102461.16
2023-02-08T12:55:35.139Z,102457.41
2023-02-08T13:00:42.893Z,102453.63
2023-02-08T13:06:01.592Z,102444.44
2023-02-08T13:11:19.415Z,102455.31
2023-02-08T13:16:29.391Z,102449.16
2023-02-08T13:21:37.978Z,102448.91
2023-02-08T13:26:41.846Z,102420.66
2023-02-08T13:31:48.705Z,102412.63
2023-02-08T13:36:57.317Z,102403.06
2023-02-08T13:42:01.236Z,102399.16
2023-02-08T13:47:05.597Z,102385.63
2023-02-08T13:52:09.993Z,102391.09
2023-02-08T13:57:42.548Z,102384.81
2023-02-08T14:03:00.757Z,102381.88
2023-02-08T14:08:07.288Z,102386.03
2023-02-08T14:13:28.913Z,102386.25
2023-02-08T14:18:31.981Z,102382.22
2023-02-08T14:23:40.719Z,102388.50
2023-02-08T14:28:48.740Z,102390.53
2023-02-08T14:33:54.996Z,102396.56
2023-02-08T14:39:23.321Z,102393.88
2023-02-08T14:44:48.838Z,102392.16
2023-02-08T14:49:59.633Z,102385.97
2023-02-08T14:55:09.025Z,102382.28
2023-02-08T15:00:21.647Z,102378.75
2023-02-08T15:05:26.943Z,102386.84
2023-02-08T15:10:35.062Z,102380.56
2023-02-08T15:15:41.491Z,102381.34
2023-02-08T15:20:45.308Z,102373.09
2023-02-08T15:25:58.013Z,102360.53
2023-02-08T15:31:03.503Z,102364.00
2023-02-08T15:36:09.124Z,102360.97
2023-02-08T15:41:15.662Z,102353.78
2023-02-08T15:46:23.182Z,102359.88
2023-02-08T15:51:27.426Z,102358.25
2023-02-08T15:56:39.466Z,102344.81
2023-02-08T16:01:47.542Z,102351.16
2023-02-08T16:06:53.130Z,102342.34
2023-02-08T16:12:01.029Z,102345.34
2023-02-08T16:17:04.300Z,102335.75
2023-02-08T16:22:25.499Z,102329.69
2023-02-08T16:27:33.713Z,102328.94
2023-02-08T16:32:39.445Z,102332.75
2023-02-08T16:37:43.305Z,102337.28
2023-02-08T16:42:47.455Z,102336.56
2023-02-08T16:47:53.108Z,102326.22
2023-02-08T16:52:59.781Z,102326.03
2023-02-08T16:58:03.946Z,102321.50
2023-02-08T17:03:06.766Z,102324.19
2023-02-08T17:08:15.817Z,102317.06
2023-02-08T17:13:21.481Z,102310.94
2023-02-08T17:18:24.645Z,102318.25
2023-02-08T17:23:27.950Z,102322.91
2023-02-08T17:28:34.457Z,102327.69
2023-02-08T17:33:40.025Z,102318.97
2023-02-08T17:38:45.021Z,102322.84
2023-02-08T17:43:51.639Z,102309.59
2023-02-08T17:48:55.445Z,102308.00
2023-02-08T17:53:58.471Z,102310.03
2023-02-08T17:59:03.960Z,102313.88
2023-02-08T18:04:06.877Z,102306.97
2023-02-08T18:09:09.724Z,102305.44
2023-02-08T18:14:14.252Z,102315.28
2023-02-08T18:19:17.083Z,102292.53
2023-02-08T18:24:19.822Z,102295.84
2023-02-08T18:29:24.597Z,102292.00
2023-02-08T18:34:27.408Z,102301.69
2023-02-08T18:39:30.412Z,102284.56
2023-02-08T18:44:36.706Z,102282.75
2023-02-08T18:49:41.339Z,102289.09
2023-02-08T18:54:44.053Z,102279.31
2023-02-08T18:59:48.467Z,102270.31
2023-02-08T19:04:51.294Z,102260.50
2023-02-08T19:09:54.147Z,102250.66
2023-02-08T19:14:58.571Z,102242.66
2023-02-08T19:20:01.317Z,102247.19
2023-02-08T19:25:04.116Z,102237.34
2023-02-08T19:30:10.147Z,102230.22
2023-02-08T19:35:13.049Z,102230.22
2023-02-08T19:40:16.795Z,102224.88
2023-02-08T19:45:21.213Z,102214.97
2023-02-08T19:50:23.968Z,102217.66
2023-02-08T19:55:26.841Z,102222.16
2023-02-08T20:00:31.168Z,102221.25
2023-02-08T20:05:36.635Z,102211.53
2023-02-08T20:10:39.933Z,102207.03
2023-02-08T20:15:45.666Z,102201.34
2023-02-08T20:21:00.406Z,102203.09
2023-02-08T20:26:10.761Z,102207.59
2023-02-08T20:31:17.267Z,102198.56
2023-02-08T20:36:21.974Z,102191.44
2023-02-08T20:41:28.027Z,102187.72
2023-02-08T20:46:35.948Z,102180.47
2023-02-08T20:51:38.805Z,102169.75
2023-02-08T20:56:41.701Z,102171.47
2023-02-08T21:01:46.501Z,102159.59
2023-02-08T21:06:49.480Z,102156.84
2023-02-08T21:11:52.906Z,102149.63
2023-02-08T21:16:58.747Z,102146.94
2023-02-08T21:22:02.982Z,102124.41
2023-02-08T21:27:06.651Z,102111.88
2023-02-08T21:32:10.821Z,102113.75
2023-02-08T21:37:13.591Z,102109.94
2023-02-08T21:42:16.480Z,102109.25
2023-02-08T21:47:20.775Z,102105.38
2023-02-08T21:52:41.131Z,102099.72
2023-02-08T21:57:44.044Z,102086.28
2023-02-08T22:02:48.176Z,102085.16
2023-02-08T22:07:54.116Z,102079.91
2023-02-08T22:12:57.864Z,102092.38
2023-02-08T22:18:03.464Z,102077.03
2023-02-08T22:23:06.410Z,102085.06
2023-02-08T22:28:09.174Z,102076.97
2023-02-08T22:33:13.505Z,102079.63
2023-02-08T22:38:16.327Z,102067.09
2023-02-08T22:43:19.284Z,102069.78
2023-02-08T22:48:23.462Z,102067.97
2023-02-08T22:53:26.365Z,102056.19
2023-02-08T22:58:29.457Z,102047.22
2023-02-08T23:03:33.671Z,102058.00
2023-02-08T23:08:37.789Z,102045.47
2023-02-08T23:13:40.641Z,102046.34
2023-02-08T23:18:45.377Z,102040.16
2023-02-08T23:23:49.471Z,102032.97
2023-02-08T23:28:54.714Z,102031.19
2023-02-08T23:33:59.561Z,102034.78
2023-02-08T23:39:03.453Z,102035.59
2023-02-08T23:44:06.496Z,102033.84
2023-02-08T23:49:10.604Z,102028.50
2023-02-08T23:54:13.497Z,102028.44
2023-02-08T23:59:16.410Z,102026.63
